Huvudsida
METAR-TAF:

METAR-TAF

Flygplatser :

Osijeks flygplats

Osijek, Kroatien

latitud: 45-27N, longitud: 018-48E, höjd: 88 m

Aktuellt väderrapport

Denna rapport gjordes för 37 minuter sedan, klockan 23:00 UTC
Vind 3 kt från syd
Temperatur 3°C
Fuktighet 93%
Tryck 1018 hPa
Sikt 10 km eller mer
Inga moln under 1 500 m eller inga cumulonimbus

METAR: LDOS 152300Z 19003KT CAVOK 03/02 Q1018

Tid: 00:37 (23:37 UTC)

Väderprognos

Denna rapport gjordes för 6 timmar och 12 minuter sedan, klockan 17:25 UTC
Prognos gäller från 15 kl. 18 UTC till 16 kl. 18 UTC
Vind 6 kt från syd/sydost
Sikt 10 km eller mer
Spridda moln på en höjd av 4000 ft

TAF: LDOS 151725Z 1518/1618 16006KT 9999 SCT040 TX11/1613Z TN01/1606Z

Aktuella väderrapporter och prognoser från 4000 flygplatser (METAR- och TAF-rapporter).

De tillgängliga stationerna syns som gula och röda prickar på kartan.

För musen över prickarna för att se namnen på stationerna.

Klicka sedan för att få väderrapporter och prognoser.

För att ändra kartan: Klicka på de gröna knapparna med ett svart kors på för att zooma in; den gröna knappen med ett streck på för att zooma ut; eller på de gröna pilarna för angränsande kartor.


METAR-TAF: